Time;durP1;ratioP1;P1;durP2;ratioP2;P2;SDS_P1;SDS_P2;PMS_P1;PMS_P2;Temp;Humidity;BMP_temperature;BMP_pressure;BME280_temperature;BME280_humidity;BME280_pressure;Samples;Min_cycle;Max_cycle;Signal;HPM_P1;HPM_P2
2023/04/13 00:00:35;;;;;;;16.92;11.75;;;180.10;2252.80;;;;;;5035837;28;20461;-81
2023/04/13 00:03:02;;;;;;;23.25;13.63;;;204.80;2252.80;;;;;;5035971;28;20123;-81
2023/04/13 00:05:28;;;;;;;24.52;13.18;;;204.90;2252.80;;;;;;5036036;28;20029;-83
2023/04/13 00:07:55;;;;;;;18.42;12.15;;;204.90;2252.80;;;;;;5035622;28;20120;-85
2023/04/13 00:10:22;;;;;;;21.65;13.63;;;180.10;2252.80;;;;;;5035890;28;20032;-78
2023/04/13 00:12:49;;;;;;;27.15;14.95;;;180.10;2252.80;;;;;;5035748;28;20132;-80
2023/04/13 00:15:18;;;;;;;25.05;14.27;;;204.80;2252.80;;;;;;5035536;28;20021;-84
2023/04/13 00:17:44;;;;;;;29.20;14.90;;;180.10;2252.80;;;;;;5035903;28;20380;-80
2023/04/13 00:20:14;;;;;;;19.63;12.35;;;180.10;2252.80;;;;;;5035767;28;20051;-82
2023/04/13 00:22:41;;;;;;;15.68;10.07;;;179.90;2252.80;;;;;;5035562;28;20388;-81
2023/04/13 00:25:08;;;;;;;18.25;10.15;;;180.10;2252.80;;;;;;5035675;28;20033;-82
2023/04/13 00:27:34;;;;;;;24.38;13.40;;;204.80;2252.80;;;;;;5035734;28;20052;-83
2023/04/13 00:30:00;;;;;;;24.63;13.45;;;204.90;2252.80;;;;;;5035523;28;20036;-81
2023/04/13 00:32:26;;;;;;;21.80;13.52;;;204.80;2252.80;;;;;;5035870;28;20133;-81
2023/04/13 00:34:52;;;;;;;29.15;16.85;;;204.80;2252.80;;;;;;5036064;28;20032;-82
2023/04/13 00:37:19;;;;;;;31.75;18.65;;;204.80;2252.80;;;;;;5035048;28;20492;-82
2023/04/13 00:39:45;;;;;;;34.63;19.92;;;205.00;2252.80;;;;;;5035667;28;20021;-81
2023/04/13 00:42:12;;;;;;;35.28;21.50;;;205.00;2252.80;;;;;;5051686;28;20061;-78
2023/04/13 00:44:38;;;;;;;33.17;21.08;;;205.10;2252.80;;;;;;5035638;28;20075;-81
2023/04/13 00:47:06;;;;;;;23.48;14.07;;;204.80;2252.80;;;;;;5037246;28;20029;-84
2023/04/13 00:49:32;;;;;;;21.17;12.00;;;205.10;2252.80;;;;;;5039184;28;20473;-78
2023/04/13 00:52:02;;;;;;;23.67;12.27;;;204.90;2252.80;;;;;;5039544;28;20126;-81
2023/04/13 00:54:28;;;;;;;17.00;10.13;;;180.10;2252.80;;;;;;5039518;28;20035;-83
2023/04/13 00:56:58;;;;;;;16.98;9.15;;;179.60;2252.80;;;;;;5039234;28;20047;-82
2023/04/13 00:59:31;;;;;;;12.68;7.80;;;179.90;2252.80;;;;;;5039450;28;20457;-83
2023/04/13 01:01:57;;;;;;;;;;;179.90;2252.80;;;;;;5039472;28;20128;-83
2023/04/13 01:04:29;;;;;;;19.73;10.20;;;179.80;2252.80;;;;;;5057197;28;19948;-82
2023/04/13 01:07:26;;;;;;;17.55;9.55;;;179.90;2252.80;;;;;;5039304;28;20032;-81
2023/04/13 01:10:05;;;;;;;17.38;9.40;;;180.10;2252.80;;;;;;5039225;28;20031;-82
2023/04/13 01:13:04;;;;;;;17.35;9.88;;;179.60;2252.80;;;;;;5038288;28;20406;-81
2023/04/13 01:15:35;;;;;;;18.90;10.00;;;179.60;2252.80;;;;;;5038427;28;20024;-84
2023/04/13 01:18:08;;;;;;;30.10;15.10;;;179.60;2252.80;;;;;;5054494;28;20029;-81
2023/04/13 01:20:35;;;;;;;;;;;179.70;2252.80;;;;;;5039362;28;20063;-80
2023/04/13 01:23:06;;;;;;;40.38;20.10;;;179.70;2252.80;;;;;;5039014;28;19905;-81
2023/04/13 01:25:39;;;;;;;27.02;13.52;;;179.70;2252.80;;;;;;5038578;28;20116;-81
2023/04/13 01:28:11;;;;;;;24.92;13.80;;;179.50;2252.80;;;;;;5037169;28;20516;-81
2023/04/13 01:30:38;;;;;;;25.30;14.48;;;179.40;2252.80;;;;;;5038704;28;20037;-81
2023/04/13 01:33:05;;;;;;;24.92;12.45;;;179.50;2252.80;;;;;;5037437;28;20380;-81
2023/04/13 01:35:31;;;;;;;31.83;16.95;;;179.80;2252.80;;;;;;5038632;28;20511;-84
2023/04/13 01:37:58;;;;;;;19.92;10.68;;;179.90;2252.80;;;;;;5056347;28;20056;-83
2023/04/13 01:40:25;;;;;;;21.35;11.13;;;179.50;2252.80;;;;;;5038411;28;20052;-82
2023/04/13 01:42:51;;;;;;;18.10;9.32;;;179.60;2252.80;;;;;;5038476;28;20029;-81
2023/04/13 01:45:19;;;;;;;17.33;10.48;;;179.40;2252.80;;;;;;5038188;28;20063;-84
2023/04/13 01:48:27;;;;;;;13.80;8.75;;;179.50;2252.80;;;;;;5038440;28;20028;-81
2023/04/13 01:51:21;;;;;;;16.75;9.20;;;179.50;2252.80;;;;;;5037504;28;20056;-81
2023/04/13 01:53:56;;;;;;;14.60;8.05;;;179.20;2252.80;;;;;;5035589;28;20473;-81
2023/04/13 01:56:22;;;;;;;13.18;7.63;;;179.50;2252.80;;;;;;5038378;28;20053;-80
2023/04/13 01:58:55;;;;;;;17.60;9.50;;;154.50;2252.80;;;;;;5041221;28;20033;-79
2023/04/13 02:01:20;;;;;;;16.92;9.82;;;179.20;2252.80;;;;;;5045477;28;20033;-82
2023/04/13 02:03:47;;;;;;;16.58;11.18;;;154.50;2252.80;;;;;;5038427;28;20497;-79
2023/04/13 02:06:13;;;;;;;26.27;13.95;;;179.20;2252.80;;;;;;5037772;28;20096;-84
2023/04/13 02:08:40;;;;;;;39.95;19.45;;;154.50;2252.80;;;;;;5038000;28;20029;-83
2023/04/13 02:11:07;;;;;;;21.23;12.77;;;179.20;2252.80;;;;;;5037961;28;20025;-82
2023/04/13 02:13:33;;;;;;;18.77;11.75;;;179.40;2252.80;;;;;;5037714;28;20448;-84
2023/04/13 02:15:59;;;;;;;21.25;12.05;;;179.40;2252.80;;;;;;5037885;28;20024;-80
2023/04/13 02:18:26;;;;;;;27.38;13.98;;;179.60;2252.80;;;;;;5038018;28;20025;-81
2023/04/13 02:21:07;;;;;;;22.65;12.73;;;179.40;2252.80;;;;;;5037526;28;20030;-82
2023/04/13 02:23:33;;;;;;;20.30;11.88;;;179.50;2252.80;;;;;;5037820;28;20119;-82
2023/04/13 02:25:59;;;;;;;27.48;14.80;;;179.60;2252.80;;;;;;5037717;28;20025;-80
2023/04/13 02:28:26;;;;;;;26.75;15.32;;;179.20;2252.80;;;;;;5037411;28;20032;-81
2023/04/13 02:30:53;;;;;;;23.45;14.15;;;154.50;2252.80;;;;;;5037483;28;20512;-80
2023/04/13 02:33:20;;;;;;;20.55;12.00;;;154.20;2252.80;;;;;;5037681;28;20031;-81
2023/04/13 02:35:47;;;;;;;19.92;10.98;;;154.30;2252.80;;;;;;5037245;28;20079;-84
2023/04/13 02:38:14;;;;;;;16.55;10.80;;;154.00;2252.80;;;;;;5037177;28;20052;-78
2023/04/13 02:40:41;;;;;;;15.60;10.18;;;154.10;2252.80;;;;;;5055284;28;20017;-82
2023/04/13 02:43:11;;;;;;;16.77;9.02;;;153.90;2252.80;;;;;;5037168;28;20039;-81
2023/04/13 02:45:41;;;;;;;18.33;10.93;;;153.70;2252.80;;;;;;5037319;28;20082;-80
2023/04/13 02:48:10;;;;;;;24.98;11.63;;;153.90;2252.80;;;;;;5036866;28;20025;-83
2023/04/13 02:50:36;;;;;;;33.83;20.42;;;154.20;2252.80;;;;;;5034884;28;20025;-80
2023/04/13 02:53:02;;;;;;;25.38;13.82;;;154.10;2252.80;;;;;;5036999;28;20535;-80
2023/04/13 02:55:27;;;;;;;25.08;14.50;;;153.90;2252.80;;;;;;5035844;28;20024;-81
2023/04/13 02:57:53;;;;;;;17.67;10.68;;;154.10;2252.80;;;;;;5037060;28;20048;-80
2023/04/13 03:00:20;;;;;;;21.77;12.68;;;154.10;2252.80;;;;;;5037117;28;20388;-83
2023/04/13 03:02:46;;;;;;;26.50;16.70;;;154.20;2252.80;;;;;;5036605;28;20036;-81
2023/04/13 03:05:12;;;;;;;29.70;17.13;;;154.20;2252.80;;;;;;5036926;28;20031;-82
2023/04/13 03:07:38;;;;;;;35.20;19.48;;;154.50;2252.80;;;;;;5036919;28;20025;-82
2023/04/13 03:10:05;;;;;;;33.58;19.35;;;154.50;2252.80;;;;;;5035927;28;20471;-83
2023/04/13 03:12:31;;;;;;;32.30;16.92;;;179.40;2252.80;;;;;;5035986;28;20029;-80
2023/04/13 03:15:01;;;;;;;23.38;13.88;;;179.40;2252.80;;;;;;5036704;28;20469;-79
2023/04/13 03:17:30;;;;;;;22.42;10.82;;;179.50;2252.80;;;;;;5035666;28;20033;-82
2023/04/13 03:19:57;;;;;;;20.10;11.57;;;179.20;2252.80;;;;;;5036495;28;20021;-84
2023/04/13 03:22:24;;;;;;;32.40;17.65;;;154.50;2252.80;;;;;;5036734;28;20499;-84
2023/04/13 03:24:51;;;;;;;42.03;20.27;;;179.60;2252.80;;;;;;5036594;28;20079;-82
2023/04/13 03:27:20;;;;;;;28.05;16.40;;;154.50;2252.80;;;;;;5036583;28;20032;-84
2023/04/13 03:29:46;;;;;;;25.88;15.05;;;154.30;2252.80;;;;;;5036565;28;20053;-84
2023/04/13 03:32:11;;;;;;;24.02;12.65;;;154.00;2252.80;;;;;;5036170;28;20073;-86
2023/04/13 03:34:42;;;;;;;25.42;13.57;;;154.20;2252.80;;;;;;5054465;28;20028;-78
2023/04/13 03:37:09;;;;;;;21.45;11.82;;;154.50;2252.80;;;;;;5036031;28;20048;-83
2023/04/13 03:39:36;;;;;;;22.30;11.77;;;154.40;2252.80;;;;;;5036294;28;20116;-82
2023/04/13 03:42:02;;;;;;;24.95;13.88;;;154.20;2252.80;;;;;;5036288;28;20025;-77
2023/04/13 03:44:29;;;;;;;24.90;13.13;;;154.10;2252.80;;;;;;5035902;28;20025;-82
2023/04/13 03:46:55;;;;;;;20.58;12.45;;;154.10;2252.80;;;;;;5036214;28;20032;-78
2023/04/13 03:49:21;;;;;;;19.15;11.95;;;153.80;2252.80;;;;;;5036267;28;20140;-77
2023/04/13 03:51:47;;;;;;;22.67;15.20;;;153.80;2252.80;;;;;;5035684;28;20071;-80
2023/04/13 03:54:13;;;;;;;20.65;11.38;;;153.80;2252.80;;;;;;5036034;28;20036;-81
2023/04/13 03:56:39;;;;;;;15.10;8.98;;;153.80;2252.80;;;;;;5036094;28;20029;-79
2023/04/13 03:59:05;;;;;;;16.73;9.45;;;153.80;2252.80;;;;;;5035921;28;20032;-79
2023/04/13 04:01:31;;;;;;;17.58;10.13;;;153.80;2252.80;;;;;;5036028;28;20025;-84
2023/04/13 04:03:57;;;;;;;22.98;14.25;;;153.90;2252.80;;;;;;5035977;28;20132;-79
2023/04/13 04:06:23;;;;;;;20.15;11.73;;;153.90;2252.80;;;;;;5035307;28;20029;-77
2023/04/13 04:08:50;;;;;;;20.60;12.20;;;153.80;2252.80;;;;;;5035817;28;20025;-78
2023/04/13 04:11:16;;;;;;;17.52;9.85;;;153.70;2252.80;;;;;;5035785;28;20515;-83
2023/04/13 04:13:42;;;;;;;20.52;11.48;;;153.80;2252.80;;;;;;5035506;28;20025;-80
2023/04/13 04:16:10;;;;;;;21.63;12.00;;;153.90;2252.80;;;;;;5035868;28;20032;-79
2023/04/13 04:18:36;;;;;;;22.60;12.43;;;;;;;;;;5035781;28;20373;-78
2023/04/13 04:21:03;;;;;;;21.15;13.48;;;128.50;2252.80;;;;;;5034476;28;20021;-82
2023/04/13 04:23:29;;;;;;;21.58;14.75;;;128.70;2252.80;;;;;;5035640;28;20025;-80
2023/04/13 04:25:58;;;;;;;22.35;13.88;;;128.90;2252.80;;;;;;5035803;28;20025;-80
2023/04/13 04:28:24;;;;;;;29.90;16.60;;;153.90;2252.80;;;;;;5034972;28;20063;-83
2023/04/13 04:30:53;;;;;;;31.70;16.65;;;154.10;2252.80;;;;;;5035489;28;20036;-80
2023/04/13 04:33:22;;;;;;;35.88;21.02;;;154.40;2252.80;;;;;;5034178;28;20041;-82
2023/04/13 04:35:50;;;;;;;33.60;20.95;;;154.20;2252.80;;;;;;5035646;28;20043;-84
2023/04/13 04:38:21;;;;;;;36.63;23.30;;;154.40;2252.80;;;;;;5019567;28;20050;-85
2023/04/13 04:40:50;;;;;;;42.38;25.70;;;154.30;2252.80;;;;;;5016803;28;20026;-81
2023/04/13 04:43:16;;;;;;;59.38;32.05;;;154.00;2252.80;;;;;;5021877;28;20026;-82
2023/04/13 04:45:44;;;;;;;59.90;36.38;;;153.80;2252.80;;;;;;5012481;28;20029;-82
2023/04/13 04:48:10;;;;;;;44.85;29.58;;;153.60;2252.80;;;;;;5012217;28;20120;-79
2023/04/13 04:50:37;;;;;;;36.83;21.80;;;153.60;2252.80;;;;;;5011715;28;20083;-80
2023/04/13 04:53:05;;;;;;;26.02;15.90;;;153.70;2252.80;;;;;;5012221;28;20037;-81
2023/04/13 04:55:32;;;;;;;29.30;16.00;;;153.60;2252.80;;;;;;5011166;28;20030;-80
2023/04/13 04:57:58;;;;;;;30.63;16.40;;;153.90;2252.80;;;;;;5012288;28;20030;-84
2023/04/13 05:00:25;;;;;;;28.85;16.95;;;154.10;2252.80;;;;;;5012278;28;20026;-81
2023/04/13 05:02:51;;;;;;;37.55;21.27;;;154.30;2252.80;;;;;;5012067;28;20068;-86
2023/04/13 05:05:17;;;;;;;39.65;22.90;;;154.40;2252.80;;;;;;5012384;28;20037;-83
2023/04/13 05:07:44;;;;;;;57.33;32.72;;;154.30;2252.80;;;;;;5012430;28;20026;-76
2023/04/13 05:10:10;;;;;;;56.03;34.10;;;154.40;2252.80;;;;;;5012029;28;20163;-80
2023/04/13 05:12:36;;;;;;;36.03;18.63;;;154.00;2252.80;;;;;;5011441;28;20129;-80
2023/04/13 05:15:03;;;;;;;25.80;16.52;;;153.90;2252.80;;;;;;5011853;28;20026;-84
2023/04/13 05:17:29;;;;;;;21.75;13.85;;;154.00;2252.80;;;;;;5011276;28;20028;-80
2023/04/13 05:19:55;;;;;;;19.35;13.13;;;154.10;2252.80;;;;;;5012114;28;20037;-80
2023/04/13 05:22:21;;;;;;;22.45;13.23;;;154.10;2252.80;;;;;;5011975;28;20033;-83
2023/04/13 05:24:47;;;;;;;29.30;16.60;;;154.00;2252.80;;;;;;5012257;28;20041;-79
2023/04/13 05:27:14;;;;;;;39.08;27.13;;;154.00;2252.80;;;;;;5012174;28;20485;-80
2023/04/13 05:29:40;;;;;;;29.33;19.75;;;153.90;2252.80;;;;;;5012270;28;20022;-82
2023/04/13 05:32:06;;;;;;;45.05;26.45;;;153.90;2252.80;;;;;;5013638;28;20444;-84
2023/04/13 05:34:34;;;;;;;46.63;31.67;;;154.00;2252.80;;;;;;5016173;28;20026;-84
2023/04/13 05:37:00;;;;;;;38.83;26.48;;;153.90;2252.80;;;;;;5019738;28;20030;-79
2023/04/13 05:39:26;;;;;;;58.80;41.25;;;154.20;2252.80;;;;;;5038691;28;20118;-82
2023/04/13 05:41:52;;;;;;;33.53;22.75;;;154.20;2252.80;;;;;;5038427;28;20052;-83
2023/04/13 05:44:18;;;;;;;37.65;22.05;;;154.30;2252.80;;;;;;5038243;28;20033;-80
2023/04/13 05:46:44;;;;;;;36.67;26.55;;;154.50;2252.80;;;;;;5038468;28;20416;-85
2023/04/13 05:49:10;;;;;;;35.17;20.83;;;154.50;2252.80;;;;;;5038415;28;20029;-80
2023/04/13 05:51:36;;;;;;;38.88;21.20;;;179.30;2252.80;;;;;;5037913;28;20056;-80
2023/04/13 05:54:02;;;;;;;40.15;21.83;;;179.30;2252.80;;;;;;5038302;28;20021;-80
2023/04/13 05:56:33;;;;;;;43.63;26.88;;;179.50;2252.80;;;;;;5038288;28;20025;-82
2023/04/13 05:58:59;;;;;;;44.85;27.55;;;179.50;2252.80;;;;;;5037205;28;20028;-83
2023/04/13 06:01:28;;;;;;;29.27;20.70;;;179.60;2252.80;;;;;;5037470;28;20037;-84
2023/04/13 06:03:54;;;;;;;27.30;19.13;;;179.60;2252.80;;;;;;5037122;28;20025;-81
2023/04/13 06:06:20;;;;;;;30.52;19.52;;;179.70;2252.80;;;;;;5037647;28;20033;-84
2023/04/13 06:08:46;;;;;;;25.42;18.30;;;179.70;2252.80;;;;;;5038063;28;20036;-79
2023/04/13 06:11:12;;;;;;;26.80;18.25;;;179.80;2252.80;;;;;;5037579;28;20029;-78
2023/04/13 06:13:40;;;;;;;27.25;17.70;;;179.90;2252.80;;;;;;5037915;28;20499;-80
2023/04/13 06:16:06;;;;;;;24.15;15.30;;;179.90;2252.80;;;;;;5038035;28;20121;-82
2023/04/13 06:18:32;;;;;;;17.20;12.27;;;204.80;2252.80;;;;;;5036508;28;20025;-80
2023/04/13 06:20:58;;;;;;;54.03;32.80;;;204.90;2252.80;;;;;;5034368;28;20036;-80
2023/04/13 06:23:25;;;;;;;28.70;17.23;;;205.10;2252.80;;;;;;5034508;28;20385;-80
2023/04/13 06:25:51;;;;;;;23.20;14.02;;;205.20;2252.80;;;;;;5034244;28;20033;-82
2023/04/13 06:28:17;;;;;;;20.90;12.38;;;205.30;2252.80;;;;;;5037333;28;20028;-80
2023/04/13 06:30:43;;;;;;;14.88;10.13;;;205.40;2252.80;;;;;;5037680;28;20025;-82
2023/04/13 06:33:10;;;;;;;27.08;14.63;;;205.50;2252.80;;;;;;5036373;28;20029;-81
2023/04/13 06:35:36;;;;;;;20.27;11.50;;;205.70;2252.80;;;;;;5038005;28;20040;-84
2023/04/13 06:38:02;;;;;;;21.83;11.15;;;205.70;2252.80;;;;;;5037528;28;20076;-84
2023/04/13 06:40:30;;;;;;;12.13;8.23;;;230.40;2252.80;;;;;;5037135;28;20087;-83
2023/04/13 06:42:57;;;;;;;14.55;8.50;;;230.40;2252.80;;;;;;5037563;28;20426;-79
2023/04/13 06:45:23;;;;;;;13.95;8.82;;;;;;;;;;5035823;28;20059;-78
2023/04/13 06:47:51;;;;;;;12.35;8.73;;;230.60;2252.80;;;;;;5037051;28;20021;-84
2023/04/13 06:50:17;;;;;;;16.48;9.68;;;230.70;2252.80;;;;;;5037295;28;20025;-85
2023/04/13 06:52:45;;;;;;;25.70;9.40;;;230.80;2252.80;;;;;;5037209;28;20083;-85
2023/04/13 06:55:11;;;;;;;18.65;11.00;;;230.90;2252.80;;;;;;5036913;28;20116;-84
2023/04/13 06:57:37;;;;;;;18.77;10.60;;;231.00;2252.80;;;;;;5037206;28;20083;-83
2023/04/13 07:00:05;;;;;;;15.00;10.15;;;231.20;2252.80;;;;;;5036925;28;20441;-81
2023/04/13 07:02:31;;;;;;;16.40;10.18;;;231.30;2252.80;;;;;;5055023;28;20460;-84
2023/04/13 07:04:57;;;;;;;21.20;11.30;;;256.00;2252.80;;;;;;5036840;28;20037;-80
2023/04/13 07:07:23;;;;;;;18.75;11.75;;;256.10;2252.80;;;;;;5036758;28;20028;-82
2023/04/13 07:09:49;;;;;;;21.52;12.60;;;256.20;2252.80;;;;;;5055128;28;20107;-81
2023/04/13 07:12:15;;;;;;;20.23;13.18;;;256.40;2252.80;;;;;;5055059;28;20040;-80
2023/04/13 07:14:41;;;;;;;17.10;9.68;;;281.70;2278.40;;;;;;5054155;28;20031;-85
2023/04/13 07:17:07;;;;;;;15.35;8.57;;;256.90;2252.80;;;;;;5054699;28;20469;-82
2023/04/13 07:19:34;;;;;;;19.60;10.30;;;256.90;2252.80;;;;;;5037027;28;20032;-80
2023/04/13 07:22:03;;;;;;;19.85;11.18;;;281.60;2278.40;;;;;;5055488;28;20064;-87
2023/04/13 07:24:29;;;;;;;11.95;9.88;;;281.70;2278.40;;;;;;5036813;28;20024;-85
2023/04/13 07:26:56;;;;;;;16.90;10.85;;;281.90;2278.40;;;;;;5036231;28;20090;-81
2023/04/13 07:29:22;;;;;;;19.30;10.60;;;;;;;;;;5036293;28;20449;-81
2023/04/13 07:31:49;;;;;;;17.17;10.38;;;282.40;2278.40;;;;;;5035386;28;20033;-81
2023/04/13 07:34:16;;;;;;;14.95;9.15;;;282.50;2278.40;;;;;;5036405;28;20380;-81
2023/04/13 07:36:42;;;;;;;18.10;10.15;;;307.20;2304.00;;;;;;5035981;28;20056;-84
2023/04/13 07:39:09;;;;;;;13.77;9.10;;;282.40;2278.40;;;;;;5035981;28;20055;-82
2023/04/13 07:41:35;;;;;;;17.35;9.93;;;307.30;2304.00;;;;;;5036413;28;20029;-80
2023/04/13 07:44:03;;;;;;;14.50;8.07;;;307.40;2304.00;;;;;;5036042;28;20095;-81
2023/04/13 07:46:29;;;;;;;13.82;9.70;;;307.60;2304.00;;;;;;5036290;28;20389;-81
2023/04/13 07:48:55;;;;;;;9.80;6.38;;;307.80;2304.00;;;;;;5035856;28;20036;-80
2023/04/13 07:51:22;;;;;;;9.77;5.97;;;307.90;2304.00;;;;;;5035758;28;20115;-79
2023/04/13 07:53:47;;;;;;;10.43;4.80;;;308.10;2304.00;;;;;;5036030;28;20541;-81
2023/04/13 07:56:14;;;;;;;11.60;5.70;;;308.10;2304.00;;;;;;5035432;28;20112;-78
2023/04/13 07:58:40;;;;;;;13.25;5.90;;;332.90;2329.60;;;;;;5035321;28;20029;-81
2023/04/13 08:01:06;;;;;;;12.10;6.20;;;332.90;2329.60;;;;;;5053818;28;20029;-81
2023/04/13 08:03:35;;;;;;;9.82;6.38;;;333.20;2329.60;;;;;;5052496;28;20036;-77
2023/04/13 08:06:06;;;;;;;7.97;5.40;;;333.30;2329.60;;;;;;5036076;28;20025;-82
2023/04/13 08:08:32;;;;;;;19.48;9.38;;;333.40;2304.00;;;;;;5036388;28;20059;-82
2023/04/13 08:10:58;;;;;;;20.10;12.52;;;333.60;2278.40;;;;;;5035981;28;20032;-80
2023/04/13 08:13:26;;;;;;;13.50;8.82;;;333.60;2201.60;;;;;;5035831;28;20067;-82
2023/04/13 08:15:54;;;;;;;7.95;4.97;;;358.40;2201.60;;;;;;5036138;28;20380;-81
2023/04/13 08:18:20;;;;;;;11.02;5.00;;;358.50;2176.00;;;;;;5035962;28;20029;-83
2023/04/13 08:20:45;;;;;;;9.57;5.05;;;358.60;2201.60;;;;;;5053869;28;20487;-81
2023/04/13 08:23:12;;;;;;;8.45;5.55;;;358.80;2201.60;;;;;;5035036;28;20411;-80
2023/04/13 08:25:39;;;;;;;11.38;9.23;;;358.90;2201.60;;;;;;5034798;28;20026;-79
2023/04/13 08:28:06;;;;;;;142.93;83.00;;;358.90;2201.60;;;;;;5031500;28;20091;-75
2023/04/13 08:30:32;;;;;;;41.90;25.90;;;359.00;2201.60;;;;;;5018859;28;20025;-77
2023/04/13 08:32:59;;;;;;;15.85;9.80;;;;;;;;;;5045831;28;20112;-76
2023/04/13 08:35:24;;;;;;;12.48;7.63;;;384.10;2176.00;;;;;;5025772;28;20469;-79
2023/04/13 08:37:51;;;;;;;12.20;7.88;;;384.40;2176.00;;;;;;5020975;28;20053;-79
2023/04/13 08:40:18;;;;;;;9.98;6.72;;;384.50;2150.40;;;;;;5031325;28;20124;-81
2023/04/13 08:42:44;;;;;;;12.02;5.47;;;384.70;2150.40;;;;;;5020338;28;20033;-81
2023/04/13 08:45:10;;;;;;;9.75;5.50;;;384.80;2150.40;;;;;;5044196;28;20068;-79
2023/04/13 08:47:38;;;;;;;11.25;5.75;;;384.90;2124.80;;;;;;5027406;28;20035;-79
2023/04/13 08:50:05;;;;;;;11.77;5.38;;;409.60;2150.40;;;;;;5037049;28;20078;-79
2023/04/13 08:52:30;;;;;;;13.70;6.55;;;384.80;2124.80;;;;;;5031167;28;20477;-79
2023/04/13 08:54:57;;;;;;;14.95;7.20;;;409.60;2150.40;;;;;;5021883;28;20304;-78
2023/04/13 08:57:23;;;;;;;14.18;6.45;;;409.60;2150.40;;;;;;5035098;28;20070;-80
2023/04/13 08:59:51;;;;;;;11.38;5.80;;;409.70;2124.80;;;;;;5035171;28;20029;-80
2023/04/13 09:02:24;;;;;;;9.57;5.53;;;409.90;2124.80;;;;;;5028316;28;20033;-81
2023/04/13 09:04:54;;;;;;;11.85;7.88;;;410.20;2099.20;;;;;;5035084;28;20504;-78
2023/04/13 09:07:27;;;;;;;9.20;5.47;;;410.30;2124.80;;;;;;5035407;28;20025;-78
2023/04/13 09:09:57;;;;;;;13.30;8.57;;;410.30;2124.80;;;;;;5024804;28;20021;-77
2023/04/13 09:12:27;;;;;;;9.88;6.05;;;410.50;2124.80;;;;;;5036321;28;20507;-81
2023/04/13 09:14:53;;;;;;;10.48;6.90;;;410.50;2099.20;;;;;;5026224;28;20028;-80
2023/04/13 09:17:31;;;;;;;12.20;6.28;;;435.20;2099.20;;;;;;5046253;28;20025;-77
2023/04/13 09:20:15;;;;;;;8.55;5.07;;;435.40;2124.80;;;;;;5032443;28;20032;-79
2023/04/13 09:22:42;;;;;;;13.13;6.20;;;435.50;2099.20;;;;;;5024439;28;20052;-80
2023/04/13 09:25:22;;;;;;;8.65;5.40;;;435.50;2099.20;;;;;;5038745;28;20025;-78
2023/04/13 09:27:50;;;;;;;9.95;6.32;;;435.70;2099.20;;;;;;5023914;28;20025;-79
2023/04/13 09:30:19;;;;;;;7.63;5.90;;;435.80;2073.60;;;;;;5035112;28;20025;-79
2023/04/13 09:32:46;;;;;;;9.32;5.13;;;436.10;2073.60;;;;;;5036298;28;20190;-81
2023/04/13 09:35:12;;;;;;;8.75;4.80;;;436.10;2048.00;;;;;;5027961;28;20108;-80
2023/04/13 09:37:40;;;;;;;13.85;7.30;;;460.80;2073.60;;;;;;5055719;28;20094;-79
2023/04/13 09:40:17;;;;;;;18.00;10.52;;;461.00;2073.60;;;;;;5022033;28;20068;-79
2023/04/13 09:42:55;;;;;;;15.02;6.18;;;461.20;2022.40;;;;;;5049894;28;20026;-78
2023/04/13 09:45:22;;;;;;;27.27;20.45;;;;;;;;;;5029268;28;20118;-80
2023/04/13 09:47:48;;;;;;;10.30;6.75;;;461.50;2022.40;;;;;;5023299;28;20374;-78
2023/04/13 09:50:22;;;;;;;13.02;8.48;;;461.70;2022.40;;;;;;5034265;28;20029;-81
2023/04/13 09:53:05;;;;;;;11.57;6.65;;;486.40;1996.80;;;;;;5024844;28;20419;-82
2023/04/13 09:55:32;;;;;;;12.65;6.80;;;;;;;;;;5026389;28;20032;-80
2023/04/13 09:58:11;;;;;;;11.30;6.10;;;486.50;1996.80;;;;;;5017745;28;20029;-82
2023/04/13 10:00:37;;;;;;;12.50;6.78;;;486.70;1996.80;;;;;;5017161;28;20662;-78
2023/04/13 10:03:08;;;;;;;10.77;7.38;;;486.90;1971.20;;;;;;5017941;28;20088;-80
2023/04/13 10:05:35;;;;;;;11.88;6.03;;;487.10;1945.60;;;;;;5030917;28;20029;-79
2023/04/13 10:08:01;;;;;;;10.50;6.05;;;487.30;1945.60;;;;;;5038153;28;20096;-79
2023/04/13 10:10:27;;;;;;;12.95;8.65;;;;;;;;;;5054710;28;20028;-78
2023/04/13 10:12:56;;;;;;;15.98;9.50;;;512.20;1920.00;;;;;;5047694;28;20496;-80
2023/04/13 10:15:44;;;;;;;11.65;7.35;;;512.40;1920.00;;;;;;5046559;28;20028;-79
2023/04/13 10:18:16;;;;;;;11.57;5.72;;;;;;;;;;5038636;28;20083;-79
2023/04/13 10:20:43;;;;;;;12.98;6.38;;;512.60;1894.40;;;;;;5031682;28;20045;-79
2023/04/13 10:23:09;;;;;;;12.20;7.50;;;537.60;1920.00;;;;;;5026691;28;20388;-78
2023/04/13 10:25:35;;;;;;;13.43;8.27;;;512.90;1894.40;;;;;;5042438;28;20056;-80
2023/04/13 10:28:01;;;;;;;9.85;6.35;;;537.90;1920.00;;;;;;5017642;28;20087;-79
2023/04/13 10:30:27;;;;;;;16.20;8.07;;;538.10;1843.20;;;;;;5033960;28;20022;-81
2023/04/13 10:33:05;;;;;;;11.52;6.07;;;538.40;1894.40;;;;;;5017681;28;20045;-79
2023/04/13 10:35:35;;;;;;;9.45;7.00;;;563.50;1894.40;;;;;;5029736;28;20032;-79
2023/04/13 10:38:02;;;;;;;13.85;7.45;;;563.60;1843.20;;;;;;5020745;28;20071;-78
2023/04/13 10:40:27;;;;;;;19.25;10.23;;;563.90;1792.00;;;;;;5033528;28;20104;-79
2023/04/13 10:42:54;;;;;;;15.80;8.05;;;;;;;;;;5024379;28;20029;-81
2023/04/13 10:45:26;;;;;;;10.95;7.65;;;589.00;1766.40;;;;;;5044313;28;20081;-82
2023/04/13 10:47:52;;;;;;;17.70;7.25;;;589.10;1766.40;;;;;;5050058;28;20067;-83
2023/04/13 10:50:23;;;;;;;11.07;6.82;;;588.90;1740.80;;;;;;5020283;28;20389;-84
2023/04/13 10:52:56;;;;;;;10.85;7.28;;;589.10;1766.40;;;;;;5030121;28;20033;-83
2023/04/13 10:55:24;;;;;;;10.30;5.57;;;589.20;1766.40;;;;;;5045744;28;20032;-80
2023/04/13 10:57:50;;;;;;;15.07;5.38;;;589.50;1715.20;;;;;;5043747;28;20384;-81
2023/04/13 11:00:23;;;;;;;12.93;5.72;;;589.50;1715.20;;;;;;5035598;28;20025;-82
2023/04/13 11:02:50;;;;;;;9.63;6.72;;;614.40;1740.80;;;;;;5047125;28;20025;-82
2023/04/13 11:05:20;;;;;;;11.80;6.50;;;614.80;1715.20;;;;;;5016904;28;20108;-84
2023/04/13 11:07:47;;;;;;;14.32;5.80;;;;;;;;;;5017101;28;20025;-82
2023/04/13 11:10:15;;;;;;;12.57;5.75;;;;;;;;;;5035101;28;20025;-84
2023/04/13 11:12:51;;;;;;;12.10;7.93;;;615.10;1638.40;;;;;;5049352;28;20060;-87
2023/04/13 11:15:22;;;;;;;11.05;6.47;;;615.20;1638.40;;;;;;5017170;28;20076;-85
2023/04/13 11:17:52;;;;;;;11.02;6.22;;;615.10;1638.40;;;;;;5031492;28;20033;-85
2023/04/13 11:20:18;;;;;;;12.43;7.25;;;615.20;1638.40;;;;;;5020265;28;20036;-85
2023/04/13 11:22:44;;;;;;;9.13;6.63;;;615.10;1612.80;;;;;;5036291;28;20025;-83
2023/04/13 11:25:10;;;;;;;11.38;5.40;;;614.80;1638.40;;;;;;5027070;28;20132;-84
2023/04/13 11:27:36;;;;;;;7.18;4.43;;;615.20;1612.80;;;;;;5016872;28;20103;-86
2023/04/13 11:30:08;;;;;;;13.55;5.03;;;615.20;1587.20;;;;;;5032283;28;20032;-83
2023/04/13 11:32:36;;;;;;;9.60;4.47;;;615.30;1561.60;;;;;;5021620;28;20365;-85
2023/04/13 11:35:08;;;;;;;10.60;6.55;;;615.10;1561.60;;;;;;5036478;28;20269;-84
2023/04/13 11:37:38;;;;;;;;;;;615.30;1612.80;;;;;;5023358;28;20049;-85
2023/04/13 11:40:10;;;;;;;10.65;5.80;;;640.10;1612.80;;;;;;5017071;28;19944;-84
2023/04/13 11:42:40;;;;;;;11.82;5.00;;;;;;;;;;5031539;28;20033;-83
2023/04/13 11:45:07;;;;;;;9.27;5.20;;;;;;;;;;5025536;28;20024;-85
2023/04/13 11:47:34;;;;;;;11.25;5.47;;;;;;;;;;5023948;28;20025;-83
2023/04/13 11:50:01;;;;;;;11.85;4.75;;;;;;;;;;5023760;28;20552;-83
2023/04/13 11:52:27;;;;;;;10.45;5.45;;;;;;;;;;5035412;28;20443;-87
2023/04/13 11:54:54;;;;;;;10.77;4.93;;;;;;;;;;5035780;28;20084;-85
2023/04/13 11:57:20;;;;;;;17.05;5.45;;;;;;;;;;5024740;28;20032;-84
2023/04/13 11:59:47;;;;;;;6.07;3.92;;;;;;;;;;5033640;28;20051;-85
2023/04/13 12:02:13;;;;;;;8.43;4.15;;;;;;;;;;5051772;28;20025;-82
2023/04/13 12:04:40;;;;;;;9.02;3.88;;;;;;;;;;5047864;28;20017;-85
2023/04/13 12:07:12;;;;;;;11.02;4.55;;;665.70;1484.80;;;;;;5025003;28;20021;-85
2023/04/13 12:09:43;;;;;;;9.18;4.30;;;;;;;;;;5036705;28;20385;-84
2023/04/13 12:12:19;;;;;;;11.32;6.22;;;;;;;;;;5054563;28;20032;-84
2023/04/13 12:14:58;;;;;;;9.75;6.32;;;;;;;;;;5035891;28;20079;-83
2023/04/13 12:17:36;;;;;;;9.95;4.90;;;666.50;1459.20;;;;;;5053754;28;20017;-83